createdAt,value
2018-12-29T00:00:16.097Z,1021.49
2018-12-29T00:01:26.059Z,1021.52
2018-12-29T00:02:36.008Z,1021.5
2018-12-29T00:03:45.943Z,1021.47
2018-12-29T00:04:55.636Z,1021.51
2018-12-29T00:06:05.576Z,1021.51
2018-12-29T00:07:15.265Z,1021.45
2018-12-29T00:08:24.953Z,1021.49
2018-12-29T00:09:34.911Z,1021.44
2018-12-29T00:10:44.857Z,1021.48
2018-12-29T00:11:54.808Z,1021.6
2018-12-29T00:13:04.743Z,1021.46
2018-12-29T00:14:14.715Z,1021.49
2018-12-29T00:15:24.152Z,1021.5
2018-12-29T00:16:33.851Z,1021.49
2018-12-29T00:17:43.541Z,1021.57
2018-12-29T00:18:53.237Z,1021.55
2018-12-29T00:20:02.939Z,1021.57
2018-12-29T00:21:12.380Z,1021.57
2018-12-29T00:22:22.320Z,1021.63
2018-12-29T00:23:32.002Z,1021.57
2018-12-29T00:24:41.938Z,1021.49
2018-12-29T00:25:51.887Z,1021.55
2018-12-29T00:27:01.590Z,1021.54
2018-12-29T00:28:11.281Z,1021.56
2018-12-29T00:29:21.218Z,1021.52
2018-12-29T00:30:30.906Z,1021.54
2018-12-29T00:31:40.865Z,1021.51
2018-12-29T00:32:50.796Z,1021.52
2018-12-29T00:34:00.746Z,1021.58
2018-12-29T00:35:10.430Z,1021.56
2018-12-29T00:36:20.369Z,1021.55
2018-12-29T00:37:30.344Z,1021.55
2018-12-29T00:38:40.036Z,1021.63
2018-12-29T00:39:49.724Z,1021.64
2018-12-29T00:40:59.414Z,1021.58
2018-12-29T00:42:09.365Z,1021.59
2018-12-29T00:43:19.309Z,1021.61
2018-12-29T00:44:29.260Z,1021.6
2018-12-29T00:45:38.962Z,1021.57
2018-12-29T00:46:48.900Z,1021.65
2018-12-29T00:47:58.850Z,1021.6
2018-12-29T00:49:08.536Z,1021.67
2018-12-29T00:50:18.469Z,1021.56
2018-12-29T00:51:28.409Z,1021.66
2018-12-29T00:52:37.859Z,1021.68
2018-12-29T00:53:47.800Z,1021.72
2018-12-29T00:54:57.746Z,1021.6
2018-12-29T00:56:07.812Z,1021.6
2018-12-29T00:57:17.509Z,1021.66
2018-12-29T00:58:27.446Z,1021.66
2018-12-29T00:59:37.129Z,1021.66
2018-12-29T01:00:47.058Z,1021.67
2018-12-29T01:01:56.754Z,1021.62
2018-12-29T01:03:06.687Z,1021.65
2018-12-29T01:04:16.364Z,1021.65
2018-12-29T01:05:26.291Z,1021.72
2018-12-29T01:06:36.231Z,1021.65
2018-12-29T01:07:46.171Z,1021.77
2018-12-29T01:08:56.114Z,1021.7
2018-12-29T01:10:06.062Z,1021.75
2018-12-29T01:11:15.505Z,1021.72
2018-12-29T01:12:25.515Z,1021.71
2018-12-29T01:13:35.210Z,1021.79
2018-12-29T01:14:44.894Z,1021.75
2018-12-29T01:15:54.577Z,1021.77
2018-12-29T01:17:04.522Z,1021.74
2018-12-29T01:18:14.452Z,1021.85
2018-12-29T01:19:24.385Z,1021.83
2018-12-29T01:20:34.326Z,1021.74
2018-12-29T01:21:44.247Z,1021.75
2018-12-29T01:22:54.199Z,1021.84
2018-12-29T01:24:04.136Z,1021.83
2018-12-29T01:25:13.831Z,1021.85
2018-12-29T01:26:23.539Z,1021.8
2018-12-29T01:27:33.217Z,1021.81
2018-12-29T01:28:43.164Z,1021.82
2018-12-29T01:29:52.858Z,1021.86
2018-12-29T01:31:02.541Z,1021.76
2018-12-29T01:32:12.231Z,1021.79
2018-12-29T01:33:22.162Z,1021.8
2018-12-29T01:34:31.851Z,1021.77
2018-12-29T01:35:41.542Z,1021.85
2018-12-29T01:36:51.496Z,1021.81
2018-12-29T01:38:01.197Z,1021.77
2018-12-29T01:39:11.128Z,1021.74
2018-12-29T01:40:20.823Z,1021.78
2018-12-29T01:41:30.520Z,1021.72
2018-12-29T01:42:40.450Z,1021.71
2018-12-29T01:43:50.160Z,1021.75
2018-12-29T01:44:59.854Z,1021.69
2018-12-29T01:46:09.792Z,1021.65
2018-12-29T01:47:19.478Z,1021.65
2018-12-29T01:48:29.168Z,1021.59
2018-12-29T01:49:39.107Z,1021.66
2018-12-29T01:50:48.803Z,1021.61
2018-12-29T01:51:58.744Z,1021.61
2018-12-29T01:53:08.418Z,1021.63
2018-12-29T01:54:18.361Z,1021.69
2018-12-29T01:55:27.794Z,1021.63
2018-12-29T01:56:37.489Z,1021.63
2018-12-29T01:57:47.440Z,1021.54
2018-12-29T01:58:57.133Z,1021.52
2018-12-29T02:00:07.078Z,1021.54
2018-12-29T02:01:17.039Z,1021.51
2018-12-29T02:02:26.724Z,1021.51
2018-12-29T02:03:36.669Z,1021.5
2018-12-29T02:04:46.599Z,1021.51
2018-12-29T02:05:56.282Z,1021.49
2018-12-29T02:07:06.274Z,1021.49
2018-12-29T02:08:16.211Z,1021.45
2018-12-29T02:09:25.919Z,1021.52
2018-12-29T02:10:35.385Z,1021.52
2018-12-29T02:11:45.068Z,1021.54
2018-12-29T02:12:55.026Z,1021.51
2018-12-29T02:14:04.983Z,1021.46
2018-12-29T02:15:14.925Z,1021.48
2018-12-29T02:16:31.939Z,1021.41
2018-12-29T02:17:41.374Z,1021.48
2018-12-29T02:18:51.135Z,1021.51
2018-12-29T02:20:00.816Z,1021.52
2018-12-29T02:21:10.750Z,1021.47
2018-12-29T02:22:20.677Z,1021.43
2018-12-29T02:23:30.626Z,1021.51
2018-12-29T02:24:40.320Z,1021.46
2018-12-29T02:25:49.996Z,1021.45
2018-12-29T02:26:59.690Z,1021.41
2018-12-29T02:28:09.638Z,1021.47
2018-12-29T02:29:19.391Z,1021.47
2018-12-29T02:30:29.342Z,1021.48
2018-12-29T02:31:39.297Z,1021.43
2018-12-29T02:32:49.283Z,1021.48
2018-12-29T02:33:59.242Z,1021.55
2018-12-29T02:35:08.943Z,1021.4
2018-12-29T02:36:18.910Z,1021.48
2018-12-29T02:37:28.838Z,1021.5
2018-12-29T02:38:38.546Z,1021.42
2018-12-29T02:39:48.498Z,1021.4
2018-12-29T02:40:58.429Z,1021.42
2018-12-29T02:42:08.411Z,1021.48
2018-12-29T02:43:18.342Z,1021.41
2018-12-29T02:44:28.043Z,1021.56
2018-12-29T02:45:37.738Z,1021.35
2018-12-29T02:46:47.700Z,1021.45
2018-12-29T02:47:57.646Z,1021.43
2018-12-29T02:49:07.111Z,1021.3
2018-12-29T02:50:17.064Z,1021.32
2018-12-29T02:51:26.745Z,1021.34
2018-12-29T02:52:36.699Z,1021.34
2018-12-29T02:53:46.655Z,1021.29
2018-12-29T02:54:56.347Z,1021.26
2018-12-29T02:56:06.056Z,1021.36
2018-12-29T02:57:15.994Z,1021.27
2018-12-29T02:58:25.443Z,1021.33
2018-12-29T02:59:35.388Z,1021.24
2018-12-29T03:00:45.342Z,1021.28
2018-12-29T03:01:55.294Z,1021.3
2018-12-29T03:03:04.995Z,1021.3
2018-12-29T03:04:14.935Z,1021.28
2018-12-29T03:05:24.608Z,1021.16
2018-12-29T03:06:34.542Z,1021.32
2018-12-29T03:07:44.235Z,1021.2
2018-12-29T03:08:54.193Z,1021.3
2018-12-29T03:10:03.879Z,1021.28
2018-12-29T03:11:13.577Z,1021.27
2018-12-29T03:12:23.060Z,1021.23
2018-12-29T03:13:33.019Z,1021.21
2018-12-29T03:14:42.710Z,1021.21
2018-12-29T03:15:52.699Z,1021.23
2018-12-29T03:17:02.399Z,1021.16
2018-12-29T03:18:12.110Z,1021.23
2018-12-29T03:19:22.050Z,1021.38
2018-12-29T03:20:32.044Z,1021.31
2018-12-29T03:21:41.991Z,1021.22
2018-12-29T03:22:51.680Z,1021.24
2018-12-29T03:24:01.632Z,1021.23
2018-12-29T03:25:11.567Z,1021.3
2018-12-29T03:26:21.526Z,1021.19
2018-12-29T03:27:30.974Z,1021.16
2018-12-29T03:28:40.914Z,1021.19
2018-12-29T03:29:50.857Z,1021.18
2018-12-29T03:31:00.806Z,1021.31
2018-12-29T03:32:10.824Z,1021.15
2018-12-29T03:33:20.556Z,1021.19
2018-12-29T03:34:30.006Z,1021.19
2018-12-29T03:35:39.955Z,1021.13
2018-12-29T03:36:49.919Z,1021.3
2018-12-29T03:37:59.352Z,1021.18
2018-12-29T03:39:09.292Z,1021.23
2018-12-29T03:40:19.222Z,1021.16
2018-12-29T03:41:29.162Z,1021.15
2018-12-29T03:42:38.694Z,1021.27
2018-12-29T03:43:48.643Z,1021.09
2018-12-29T03:44:58.584Z,1021.12
2018-12-29T03:46:08.294Z,1021.15
2018-12-29T03:47:18.239Z,1021.19
2018-12-29T03:48:28.175Z,1021.13
2018-12-29T03:49:38.106Z,1021.06
2018-12-29T03:50:48.043Z,1021.07
2018-12-29T03:51:57.727Z,1021.11
2018-12-29T03:53:07.691Z,1021.11
2018-12-29T03:54:17.640Z,1021.16
2018-12-29T03:55:27.570Z,1021.04
2018-12-29T03:56:37.505Z,1021.09
2018-12-29T03:57:47.195Z,1021.05
2018-12-29T03:58:57.139Z,1021.06
2018-12-29T04:00:07.089Z,1020.98
2018-12-29T04:01:17.047Z,1021
2018-12-29T04:02:26.984Z,1020.95
2018-12-29T04:03:36.682Z,1020.97
2018-12-29T04:04:46.122Z,1021.04
2018-12-29T04:05:56.057Z,1021.1
2018-12-29T04:07:06.093Z,1021.09
2018-12-29T04:08:16.042Z,1021.02
2018-12-29T04:09:26.002Z,1021.07
2018-12-29T04:10:35.958Z,1021.03
2018-12-29T04:11:45.654Z,1021.07
2018-12-29T04:12:55.586Z,1021.06
2018-12-29T04:14:05.526Z,1021.03
2018-12-29T04:15:15.210Z,1021.11
2018-12-29T04:16:25.142Z,1021.13
2018-12-29T04:17:35.095Z,1020.96
2018-12-29T04:18:45.044Z,1021.01
2018-12-29T04:19:54.243Z,1021.06
2018-12-29T04:21:04.265Z,1021
2018-12-29T04:22:13.983Z,1021.01
2018-12-29T04:23:23.441Z,1020.96
2018-12-29T04:24:33.374Z,1021.04
2018-12-29T04:25:43.316Z,1021.07
2018-12-29T04:26:53.270Z,1021.01
2018-12-29T04:28:02.955Z,1021.09
2018-12-29T04:29:12.876Z,1021.05
2018-12-29T04:30:22.554Z,1021.04
2018-12-29T04:31:31.747Z,1020.99
2018-12-29T04:32:41.433Z,1020.97
2018-12-29T04:33:51.362Z,1021.05
2018-12-29T04:35:01.293Z,1021.04
2018-12-29T04:36:10.733Z,1021.08
2018-12-29T04:37:20.685Z,1021.02
2018-12-29T04:38:30.621Z,1021.05
2018-12-29T04:39:40.610Z,1021.17
2018-12-29T04:40:50.298Z,1021.11
2018-12-29T04:41:59.978Z,1021.14
2018-12-29T04:43:09.913Z,1021.11
2018-12-29T04:44:19.851Z,1021.12
2018-12-29T04:45:29.523Z,1021.06
2018-12-29T04:46:39.458Z,1021.11
2018-12-29T04:47:48.993Z,1021.18
2018-12-29T04:48:58.931Z,1021.19
2018-12-29T04:50:08.877Z,1021.15
2018-12-29T04:51:18.820Z,1021.17
2018-12-29T04:52:28.758Z,1021.08
2018-12-29T04:53:38.440Z,1021.07
2018-12-29T04:54:48.126Z,1021.11
2018-12-29T04:55:58.067Z,1021.03
2018-12-29T04:57:08.004Z,1021.05
2018-12-29T04:58:17.944Z,1021.06
2018-12-29T04:59:27.138Z,1021.13
2018-12-29T05:00:36.826Z,1021.07
2018-12-29T05:01:46.502Z,1021.12
2018-12-29T05:02:56.192Z,1021.12
2018-12-29T05:04:06.137Z,1021.15
2018-12-29T05:05:16.080Z,1021.16
2018-12-29T05:06:26.018Z,1021.12
2018-12-29T05:07:35.954Z,1021.11
2018-12-29T05:08:45.898Z,1021.19
2018-12-29T05:09:55.580Z,1021.04
2018-12-29T05:11:05.526Z,1021.11
2018-12-29T05:12:15.463Z,1021.07
2018-12-29T05:13:24.915Z,1021.2
2018-12-29T05:14:34.352Z,1021.08
2018-12-29T05:15:44.289Z,1021.09
2018-12-29T05:16:53.969Z,1021.12
2018-12-29T05:18:03.978Z,1021.15
2018-12-29T05:19:13.407Z,1021.19
2018-12-29T05:20:23.348Z,1021.13
2018-12-29T05:21:33.026Z,1021.13
2018-12-29T05:22:42.968Z,1021.19
2018-12-29T05:23:52.668Z,1021.27
2018-12-29T05:25:02.664Z,1021.22
2018-12-29T05:26:12.353Z,1021.16
2018-12-29T05:27:22.283Z,1021.23
2018-12-29T05:28:32.418Z,1021.27
2018-12-29T05:29:42.320Z,1021.22
2018-12-29T05:30:52.251Z,1021.21
2018-12-29T05:32:02.203Z,1021.23
2018-12-29T05:33:12.201Z,1021.23
2018-12-29T05:34:21.888Z,1021.16
2018-12-29T05:35:31.824Z,1021.33
2018-12-29T05:36:41.525Z,1021.24
2018-12-29T05:37:50.957Z,1021.21
2018-12-29T05:39:00.897Z,1021.2
2018-12-29T05:40:10.829Z,1021.24
2018-12-29T05:41:20.262Z,1021.38
2018-12-29T05:42:29.958Z,1021.28
2018-12-29T05:43:39.896Z,1021.21
2018-12-29T05:44:49.592Z,1021.25
2018-12-29T05:45:59.280Z,1021.26
2018-12-29T05:47:09.225Z,1021.25
2018-12-29T05:48:18.921Z,1021.26
2018-12-29T05:49:28.888Z,1021.18
2018-12-29T05:50:38.842Z,1021.21
2018-12-29T05:51:48.779Z,1021.3
2018-12-29T05:52:58.470Z,1021.31
2018-12-29T05:54:08.410Z,1021.4
2018-12-29T05:55:18.350Z,1021.34
2018-12-29T05:56:27.542Z,1021.44
2018-12-29T05:57:37.489Z,1021.31
2018-12-29T05:58:47.173Z,1021.35
2018-12-29T05:59:56.610Z,1021.31
2018-12-29T06:01:06.299Z,1021.29
2018-12-29T06:02:15.494Z,1021.32
2018-12-29T06:03:25.186Z,1021.39
2018-12-29T06:04:34.638Z,1021.32
2018-12-29T06:05:44.346Z,1021.4
2018-12-29T06:06:54.287Z,1021.38
2018-12-29T06:08:04.375Z,1021.4
2018-12-29T06:09:14.321Z,1021.4
2018-12-29T06:10:24.013Z,1021.42
2018-12-29T06:11:33.739Z,1021.33
2018-12-29T06:12:45.331Z,1021.36
2018-12-29T06:13:55.338Z,1021.48
2018-12-29T06:15:05.281Z,1021.38
2018-12-29T06:16:14.970Z,1021.45
2018-12-29T06:17:30.351Z,1021.46
2018-12-29T06:18:40.288Z,1021.49
2018-12-29T06:19:49.462Z,1021.47
2018-12-29T06:20:59.165Z,1021.46
2018-12-29T06:22:09.109Z,1021.46
2018-12-29T06:23:18.799Z,1021.41
2018-12-29T06:24:28.483Z,1021.43
2018-12-29T06:25:38.469Z,1021.45
2018-12-29T06:26:48.147Z,1021.5
2018-12-29T06:27:58.079Z,1021.48
2018-12-29T06:29:07.762Z,1021.46
2018-12-29T06:30:17.191Z,1021.45
2018-12-29T06:31:26.948Z,1021.47
2018-12-29T06:32:36.637Z,1021.45
2018-12-29T06:33:46.576Z,1021.5
2018-12-29T06:34:56.017Z,1021.56
2018-12-29T06:36:06.037Z,1021.52
2018-12-29T06:37:15.965Z,1021.55
2018-12-29T06:38:25.923Z,1021.57
2018-12-29T06:39:35.880Z,1021.54
2018-12-29T06:40:45.815Z,1021.61
2018-12-29T06:41:55.753Z,1021.69
2018-12-29T06:43:05.701Z,1021.82
2018-12-29T06:44:15.389Z,1021.69
2018-12-29T06:45:25.340Z,1021.77
2018-12-29T06:46:35.411Z,1021.73
2018-12-29T06:47:45.119Z,1021.73
2018-12-29T06:48:54.818Z,1021.66
2018-12-29T06:50:04.500Z,1021.85
2018-12-29T06:51:14.187Z,1021.8
2018-12-29T06:52:23.874Z,1021.66
2018-12-29T06:53:33.820Z,1021.69
2018-12-29T06:54:43.762Z,1021.66
2018-12-29T06:55:53.701Z,1021.67
2018-12-29T06:57:03.376Z,1021.68
2018-12-29T06:58:13.320Z,1021.64
2018-12-29T06:59:22.997Z,1021.63
2018-12-29T07:00:32.693Z,1021.54
2018-12-29T07:01:42.623Z,1021.65
2018-12-29T07:02:52.555Z,1021.61
2018-12-29T07:04:02.494Z,1021.71
2018-12-29T07:05:12.451Z,1021.61
2018-12-29T07:06:22.383Z,1021.71
2018-12-29T07:07:31.817Z,1021.72
2018-12-29T07:08:41.754Z,1021.73
2018-12-29T07:09:51.935Z,1021.66
2018-12-29T07:11:01.867Z,1021.78
2018-12-29T07:12:11.808Z,1021.65
2018-12-29T07:13:21.493Z,1021.66
2018-12-29T07:14:31.173Z,1021.59
2018-12-29T07:15:41.107Z,1021.67
2018-12-29T07:16:51.061Z,1021.7
2018-12-29T07:18:00.985Z,1021.64
2018-12-29T07:19:10.940Z,1021.61
2018-12-29T07:20:20.887Z,1021.56
2018-12-29T07:21:30.821Z,1021.54
2018-12-29T07:22:40.517Z,1021.52
2018-12-29T07:23:50.457Z,1021.46
2018-12-29T07:25:00.186Z,1021.53
2018-12-29T07:26:10.141Z,1021.49
2018-12-29T07:27:19.824Z,1021.47
2018-12-29T07:28:29.262Z,1021.57
2018-12-29T07:29:39.273Z,1021.52
2018-12-29T07:30:48.959Z,1021.43
2018-12-29T07:31:58.882Z,1021.49
2018-12-29T07:33:08.589Z,1021.37
2018-12-29T07:34:18.283Z,1021.36
2018-12-29T07:35:27.996Z,1021.37
2018-12-29T07:36:37.997Z,1021.38
2018-12-29T07:37:47.177Z,1021.39
2018-12-29T07:38:57.124Z,1021.41
2018-12-29T07:40:07.047Z,1021.47
2018-12-29T07:41:16.985Z,1021.53
2018-12-29T07:42:26.687Z,1021.51
2018-12-29T07:43:36.381Z,1021.55
2018-12-29T07:44:46.329Z,1021.57
2018-12-29T07:45:56.261Z,1021.52
2018-12-29T07:47:06.207Z,1021.47
2018-12-29T07:48:15.898Z,1021.48
2018-12-29T07:49:25.596Z,1021.51
2018-12-29T07:50:35.533Z,1021.56
2018-12-29T07:51:45.485Z,1021.6
2018-12-29T07:52:54.915Z,1021.65
2018-12-29T07:54:04.850Z,1021.63
2018-12-29T07:55:14.540Z,1021.66
2018-12-29T07:56:24.225Z,1021.64
2018-12-29T07:57:34.161Z,1021.61
2018-12-29T07:58:44.106Z,1021.58
2018-12-29T07:59:53.788Z,1021.56
2018-12-29T08:01:04.290Z,1021.61
2018-12-29T08:02:14.319Z,1021.61
2018-12-29T08:03:24.274Z,1021.57
2018-12-29T08:04:34.238Z,1021.53
2018-12-29T08:05:44.183Z,1021.55
2018-12-29T08:06:54.128Z,1021.53
2018-12-29T08:08:04.075Z,1021.55
2018-12-29T08:09:13.524Z,1021.53
2018-12-29T08:10:23.469Z,1021.49
2018-12-29T08:11:33.409Z,1021.5
2018-12-29T08:12:43.344Z,1021.54
2018-12-29T08:13:53.285Z,1021.46
2018-12-29T08:15:03.255Z,1021.5
2018-12-29T08:16:13.206Z,1021.5
2018-12-29T08:17:23.158Z,1021.43
2018-12-29T08:18:32.863Z,1021.45
2018-12-29T08:19:42.301Z,1021.52
2018-12-29T08:20:51.994Z,1021.5
2018-12-29T08:22:01.687Z,1021.63
2018-12-29T08:23:11.368Z,1021.51
2018-12-29T08:24:21.050Z,1021.53
2018-12-29T08:25:30.998Z,1021.51
2018-12-29T08:26:40.694Z,1021.54
2018-12-29T08:27:50.382Z,1021.54
2018-12-29T08:29:00.322Z,1021.47
2018-12-29T08:30:09.267Z,1021.45
2018-12-29T08:31:18.970Z,1021.45
2018-12-29T08:32:28.923Z,1021.39
2018-12-29T08:33:38.602Z,1021.43
2018-12-29T08:34:48.373Z,1021.36
2018-12-29T08:35:58.312Z,1021.37
2018-12-29T08:37:08.002Z,1021.44
2018-12-29T08:38:17.775Z,1021.45
2018-12-29T08:39:27.712Z,1021.47
2018-12-29T08:40:37.658Z,1021.57
2018-12-29T08:41:47.362Z,1021.52
2018-12-29T08:42:57.310Z,1021.58
2018-12-29T08:44:07.258Z,1021.55
2018-12-29T08:45:17.205Z,1021.55
2018-12-29T08:46:26.392Z,1021.55
2018-12-29T08:47:36.337Z,1021.55
2018-12-29T08:48:46.276Z,1021.53
2018-12-29T08:49:55.966Z,1021.64
2018-12-29T08:51:13.398Z,1021.56
2018-12-29T08:52:23.355Z,1021.59
2018-12-29T08:53:33.048Z,1021.63
2018-12-29T08:54:42.987Z,1021.74
2018-12-29T08:55:52.921Z,1021.66
2018-12-29T08:57:02.870Z,1021.55
2018-12-29T08:58:12.556Z,1021.61
2018-12-29T08:59:22.494Z,1021.57
2018-12-29T09:00:32.436Z,1021.62
2018-12-29T09:01:42.381Z,1021.54
2018-12-29T09:02:52.333Z,1021.53
2018-12-29T09:04:02.290Z,1021.51
2018-12-29T09:05:11.978Z,1021.51
2018-12-29T09:06:21.924Z,1021.58
2018-12-29T09:07:31.858Z,1021.61
2018-12-29T09:08:42.215Z,1021.59
2018-12-29T09:09:52.244Z,1021.57
2018-12-29T09:11:01.948Z,1021.51
2018-12-29T09:12:11.927Z,1021.55
2018-12-29T09:13:21.880Z,1021.57
2018-12-29T09:14:31.569Z,1021.58
2018-12-29T09:15:41.274Z,1021.58
2018-12-29T09:16:51.213Z,1021.54
2018-12-29T09:18:01.148Z,1021.58
2018-12-29T09:19:11.095Z,1021.53
2018-12-29T09:20:27.654Z,1021.49
2018-12-29T09:21:37.653Z,1021.54
2018-12-29T09:22:47.606Z,1021.52
2018-12-29T09:23:57.568Z,1021.53
2018-12-29T09:25:07.258Z,1021.51
2018-12-29T09:26:16.947Z,1021.56
2018-12-29T09:27:26.660Z,1021.51
2018-12-29T09:28:36.353Z,1021.54
2018-12-29T09:29:46.306Z,1021.54
2018-12-29T09:30:55.993Z,1021.52
2018-12-29T09:32:05.934Z,1021.51
2018-12-29T09:33:15.869Z,1021.53
2018-12-29T09:34:25.852Z,1021.6
2018-12-29T09:35:35.549Z,1021.48
2018-12-29T09:36:45.504Z,1021.45
2018-12-29T09:37:55.213Z,1021.49
2018-12-29T09:39:05.180Z,1021.5
2018-12-29T09:40:15.127Z,1021.46
2018-12-29T09:41:25.071Z,1021.47
2018-12-29T09:42:35.034Z,1021.47
2018-12-29T09:43:44.968Z,1021.45
2018-12-29T09:44:54.894Z,1021.45
2018-12-29T09:46:04.741Z,1021.54
2018-12-29T09:47:19.517Z,1021.5
2018-12-29T09:48:29.696Z,1021.51
2018-12-29T09:49:39.650Z,1021.53
2018-12-29T09:50:49.350Z,1021.5
2018-12-29T09:51:59.047Z,1021.49
2018-12-29T09:53:09.021Z,1021.44
2018-12-29T09:54:18.727Z,1021.48
2018-12-29T09:55:28.670Z,1021.38
2018-12-29T09:56:38.370Z,1021.36
2018-12-29T09:57:48.318Z,1021.48
2018-12-29T09:58:58.255Z,1021.39
2018-12-29T10:00:08.190Z,1021.36
2018-12-29T10:01:17.631Z,1021.41
2018-12-29T10:02:27.592Z,1021.35
2018-12-29T10:03:36.785Z,1021.3
2018-12-29T10:04:46.236Z,1021.27
2018-12-29T10:05:55.920Z,1021.36
2018-12-29T10:07:05.618Z,1021.24
2018-12-29T10:08:15.060Z,1021.29
2018-12-29T10:09:25.012Z,1021.23
2018-12-29T10:10:34.782Z,1021.22
2018-12-29T10:11:44.718Z,1021.15
2018-12-29T10:12:54.665Z,1021.11
2018-12-29T10:14:04.122Z,1021.05
2018-12-29T10:15:13.816Z,1021.01
2018-12-29T10:16:23.510Z,1020.99
2018-12-29T10:17:33.190Z,1021.04
2018-12-29T10:18:42.866Z,1021.14
2018-12-29T10:19:52.806Z,1021.12
2018-12-29T10:21:02.760Z,1021.09
2018-12-29T10:22:12.706Z,1021.01
2018-12-29T10:23:22.642Z,1020.95
2018-12-29T10:24:32.591Z,1020.86
2018-12-29T10:25:42.534Z,1020.86
2018-12-29T10:26:52.469Z,1020.93
2018-12-29T10:28:02.420Z,1020.93
2018-12-29T10:29:13.308Z,1020.96
2018-12-29T10:30:23.017Z,1020.95
2018-12-29T10:31:32.947Z,1020.98
2018-12-29T10:32:42.894Z,1020.99
2018-12-29T10:33:52.825Z,1020.86
2018-12-29T10:35:03.052Z,1020.79
2018-12-29T10:36:12.730Z,1020.74
2018-12-29T10:37:21.917Z,1020.78
2018-12-29T10:38:31.848Z,1020.72
2018-12-29T10:39:41.303Z,1020.67
2018-12-29T10:40:51.025Z,1020.7
2018-12-29T10:42:00.967Z,1020.63
2018-12-29T10:43:10.414Z,1020.6
2018-12-29T10:44:20.098Z,1020.67
2018-12-29T10:45:30.053Z,1020.63
2018-12-29T10:46:39.484Z,1020.69
2018-12-29T10:47:49.441Z,1020.62
2018-12-29T10:48:58.956Z,1020.6
2018-12-29T10:50:08.410Z,1020.64
2018-12-29T10:51:18.353Z,1020.64
2018-12-29T10:52:27.568Z,1020.68
2018-12-29T10:53:37.509Z,1020.59
2018-12-29T10:54:46.956Z,1020.6
2018-12-29T10:55:56.901Z,1020.52
2018-12-29T10:57:06.593Z,1020.57
2018-12-29T10:58:16.294Z,1020.55
2018-12-29T10:59:26.225Z,1020.52
2018-12-29T11:00:35.928Z,1020.56
2018-12-29T11:01:45.889Z,1020.54
2018-12-29T11:02:55.843Z,1020.47
2018-12-29T11:04:05.788Z,1020.5
2018-12-29T11:05:16.017Z,1020.57
2018-12-29T11:06:26.043Z,1020.7
2018-12-29T11:07:35.816Z,1020.46
2018-12-29T11:08:45.505Z,1020.53
2018-12-29T11:09:55.449Z,1020.35
2018-12-29T11:11:05.190Z,1020.59
2018-12-29T11:12:15.121Z,1020.68
2018-12-29T11:13:24.831Z,1020.53
2018-12-29T11:14:34.777Z,1020.63
2018-12-29T11:15:44.481Z,1020.55
2018-12-29T11:16:54.435Z,1020.51
2018-12-29T11:18:04.133Z,1020.58
2018-12-29T11:19:13.836Z,1020.5
2018-12-29T11:20:23.777Z,1020.51
2018-12-29T11:21:33.727Z,1020.5
2018-12-29T11:22:43.673Z,1020.46
2018-12-29T11:23:53.625Z,1020.46
2018-12-29T11:25:03.556Z,1020.51
2018-12-29T11:26:12.745Z,1020.42
2018-12-29T11:27:22.445Z,1020.38
2018-12-29T11:28:32.138Z,1020.38
2018-12-29T11:29:42.089Z,1020.46
2018-12-29T11:30:51.780Z,1020.46
2018-12-29T11:32:01.470Z,1020.35
2018-12-29T11:33:11.177Z,1020.32
2018-12-29T11:34:21.115Z,1020.3
2018-12-29T11:35:30.827Z,1020.26
2018-12-29T11:36:40.781Z,1020.28
2018-12-29T11:37:50.481Z,1020.2
2018-12-29T11:39:00.435Z,1020.42
2018-12-29T11:40:10.202Z,1020.27
2018-12-29T11:41:19.967Z,1020.31
2018-12-29T11:42:31.423Z,1020.16
2018-12-29T11:43:41.434Z,1020.08
2018-12-29T11:44:51.115Z,1020.15
2018-12-29T11:46:00.801Z,1020.14
2018-12-29T11:47:10.495Z,1020.04
2018-12-29T11:48:20.425Z,1019.87
2018-12-29T11:49:29.922Z,1019.89
2018-12-29T11:50:39.655Z,1019.91
2018-12-29T11:51:49.401Z,1019.87
2018-12-29T11:52:59.133Z,1019.83
2018-12-29T11:54:09.137Z,1019.84
2018-12-29T11:55:18.863Z,1019.81
2018-12-29T11:56:28.377Z,1019.81
2018-12-29T11:57:38.341Z,1019.8
2018-12-29T11:58:48.699Z,1019.8
2018-12-29T11:59:59.199Z,1019.89
2018-12-29T12:01:11.272Z,1019.81
2018-12-29T12:02:24.512Z,1019.77
2018-12-29T12:03:34.502Z,1019.78
2018-12-29T12:04:44.250Z,1019.84
2018-12-29T12:05:53.987Z,1019.79
2018-12-29T12:07:03.478Z,1019.76
2018-12-29T12:08:13.461Z,1019.78
2018-12-29T12:09:23.224Z,1019.75
2018-12-29T12:10:33.293Z,1019.77
2018-12-29T12:11:42.794Z,1019.8
2018-12-29T12:12:52.778Z,1019.79
2018-12-29T12:14:02.526Z,1019.71
2018-12-29T12:15:12.552Z,1019.7
2018-12-29T12:16:22.570Z,1019.56
2018-12-29T12:17:32.357Z,1019.48
2018-12-29T12:18:42.370Z,1019.48
2018-12-29T12:19:51.884Z,1019.39
2018-12-29T12:21:01.655Z,1019.35
2018-12-29T12:22:11.652Z,1019.44
2018-12-29T12:23:21.724Z,1019.45
2018-12-29T12:24:31.568Z,1019.53
2018-12-29T12:25:41.642Z,1019.54
2018-12-29T12:26:51.677Z,1019.73
2018-12-29T12:28:01.417Z,1019.74
2018-12-29T12:29:11.439Z,1019.68
2018-12-29T12:30:22.353Z,1019.71
2018-12-29T12:31:31.864Z,1019.7
2018-12-29T12:32:41.882Z,1019.67
2018-12-29T12:33:51.926Z,1019.61
2018-12-29T12:35:02.695Z,1019.61
2018-12-29T12:36:12.454Z,1019.5
2018-12-29T12:37:22.252Z,1019.62
2018-12-29T12:38:33.340Z,1019.57
2018-12-29T12:39:43.341Z,1019.54
2018-12-29T12:40:53.368Z,1019.5
2018-12-29T12:42:03.636Z,1019.53
2018-12-29T12:43:13.694Z,1019.51
2018-12-29T12:44:25.143Z,1019.52
2018-12-29T12:45:35.157Z,1019.53
2018-12-29T12:46:44.918Z,1019.52
2018-12-29T12:47:55.644Z,1019.58
2018-12-29T12:49:12.859Z,1019.63
2018-12-29T12:50:22.646Z,1019.6
2018-12-29T12:51:32.165Z,1019.62
2018-12-29T12:52:42.484Z,1019.64
2018-12-29T12:53:52.492Z,1019.68
2018-12-29T12:55:02.511Z,1019.65
2018-12-29T12:56:12.501Z,1019.64
2018-12-29T12:57:22.652Z,1019.65
2018-12-29T12:58:33.812Z,1019.63
2018-12-29T12:59:45.509Z,1019.67
2018-12-29T13:00:56.124Z,1019.63
2018-12-29T13:02:06.848Z,1019.63
2018-12-29T13:03:17.498Z,1019.62
2018-12-29T13:04:27.999Z,1019.57
2018-12-29T13:05:38.258Z,1019.55
2018-12-29T13:06:48.417Z,1019.6
2018-12-29T13:07:58.419Z,1019.57
2018-12-29T13:09:08.454Z,1019.64
2018-12-29T13:10:18.458Z,1019.63
2018-12-29T13:11:28.498Z,1019.65
2018-12-29T13:12:38.246Z,1019.63
2018-12-29T13:13:48.322Z,1019.59
2018-12-29T13:14:58.315Z,1019.54
2018-12-29T13:16:08.327Z,1019.56
2018-12-29T13:17:18.334Z,1019.55
2018-12-29T13:18:28.096Z,1019.59
2018-12-29T13:19:38.119Z,1019.49
2018-12-29T13:20:48.113Z,1019.59
2018-12-29T13:21:58.115Z,1019.69
2018-12-29T13:23:07.879Z,1019.6
2018-12-29T13:24:17.652Z,1019.5
2018-12-29T13:25:27.666Z,1019.63
2018-12-29T13:26:37.128Z,1019.54
2018-12-29T13:27:47.116Z,1019.53
2018-12-29T13:28:57.098Z,1019.43
2018-12-29T13:30:07.130Z,1019.49
2018-12-29T13:31:16.868Z,1019.47
2018-12-29T13:32:26.872Z,1019.51
2018-12-29T13:33:36.985Z,1019.51
2018-12-29T13:34:47.376Z,1019.44
2018-12-29T13:35:58.086Z,1019.41
2018-12-29T13:37:08.762Z,1019.41
2018-12-29T13:38:18.544Z,1019.48
2018-12-29T13:39:28.303Z,1019.41
2018-12-29T13:40:38.299Z,1019.38
2018-12-29T13:41:49.686Z,1019.43
2018-12-29T13:42:59.688Z,1019.4
2018-12-29T13:44:09.422Z,1019.46
2018-12-29T13:45:19.438Z,1019.4
2018-12-29T13:46:29.455Z,1019.51
2018-12-29T13:47:39.451Z,1019.46
2018-12-29T13:48:49.463Z,1019.43
2018-12-29T13:49:59.455Z,1019.47
2018-12-29T13:51:09.451Z,1019.56
2018-12-29T13:52:19.201Z,1019.46
2018-12-29T13:53:28.923Z,1019.46
2018-12-29T13:54:38.467Z,1019.43
2018-12-29T13:55:48.473Z,1019.46
2018-12-29T13:56:58.220Z,1019.5
2018-12-29T13:58:07.941Z,1019.5
2018-12-29T13:59:17.934Z,1019.48
2018-12-29T14:00:27.698Z,1019.51
2018-12-29T14:01:37.467Z,1019.56
2018-12-29T14:02:47.479Z,1019.58
2018-12-29T14:03:57.886Z,1019.54
2018-12-29T14:05:08.418Z,1019.52
2018-12-29T14:06:19.033Z,1019.61
2018-12-29T14:07:29.328Z,1019.57
2018-12-29T14:08:39.100Z,1019.55